Conifer, Colorado
Current Conditions -  °F | °C
As of 10:53 AM on Thursday 23 Oct 2014 (Local Time) from KAPA Reporting Station
Few Clouds Few Clouds  
Wind Chill: 65°   Ceiling: Unl
Heat Index: 65°   Visibility: 10mi
Dew Point: 30°   Wind: 6mph
Humidity: 27%   Direction: 220°SW
Pressure: 30.2"   Gusts: NA
Location:  39.52°N, 105.31°W
Report Text: KAPA 231653Z 22005KT 10SM FEW150 18/M01 A3020 RMK AO2 SLP189 T01831011
Loading
Personal Weather Stations






























Interactive Weather Map
Tropical Storm Tracking
New forecast layout! Learn more

10-Day Weather Forecast

Advertisements
Track Severe Weather on mobile